Time;durP1;ratioP1;P1;durP2;ratioP2;P2;SDS_P1;SDS_P2;PMS_P1;PMS_P2;Temp;Humidity;BMP_temperature;BMP_pressure;BME280_temperature;BME280_humidity;BME280_pressure;Samples;Min_cycle;Max_cycle;Signal;HPM_P1;HPM_P2
2022/06/16 00:00:47;;;;;;;17.85;13.18;;;;;;;18.73;62.93;101648.81;4914993;29;20040;-90
2022/06/16 00:03:12;;;;;;;22.90;13.85;;;;;;;18.72;62.95;101650.59;4915328;29;20489;-90
2022/06/16 00:05:41;;;;;;;23.67;13.45;;;;;;;18.65;63.03;101644.06;4899549;29;20072;-90
2022/06/16 00:08:07;;;;;;;20.63;13.55;;;;;;;18.75;62.78;101649.53;4915159;29;20087;-90
2022/06/16 00:10:33;;;;;;;20.65;13.88;;;;;;;18.74;62.60;101653.09;4915060;29;20065;-90
2022/06/16 00:12:58;;;;;;;23.95;13.80;;;;;;;18.49;63.05;101620.66;4915353;29;20028;-90
2022/06/16 00:15:25;;;;;;;22.70;14.38;;;;;;;18.56;62.67;101639.41;4899093;29;20114;-90
2022/06/16 00:17:51;;;;;;;21.40;13.40;;;;;;;18.51;63.15;101637.09;4915169;29;20020;-88
2022/06/16 00:20:16;;;;;;;19.08;13.77;;;;;;;18.37;63.35;101631.91;4931048;29;20042;-90
2022/06/16 00:22:42;;;;;;;21.40;13.80;;;;;;;18.41;63.84;101640.44;4915359;29;20164;-91
2022/06/16 00:25:08;;;;;;;22.85;13.50;;;;;;;18.47;63.43;101634.78;4914919;29;20036;-90
2022/06/16 00:27:34;;;;;;;24.00;14.07;;;;;;;18.44;63.56;101633.19;4914870;29;20032;-89
2022/06/16 00:29:59;;;;;;;22.00;13.90;;;;;;;18.47;63.73;101640.00;4914697;29;20503;-91
2022/06/16 00:32:25;;;;;;;24.38;14.07;;;;;;;18.39;63.58;101627.44;4930837;29;20035;-91
2022/06/16 00:34:51;;;;;;;24.60;14.00;;;;;;;18.48;63.63;101642.53;4914894;29;20039;-90
2022/06/16 00:37:16;;;;;;;21.20;13.43;;;;;;;18.50;63.49;101645.06;4914524;29;20080;-89
2022/06/16 00:39:42;;;;;;;24.30;13.25;;;;;;;18.41;63.37;101643.91;4914804;29;20064;-91
2022/06/16 00:42:29;;;;;;;19.55;13.75;;;;;;;18.27;63.63;101636.09;4914630;29;20398;-90
2022/06/16 00:44:56;;;;;;;25.50;13.60;;;;;;;18.19;64.14;101641.84;4928074;29;20167;-89
2022/06/16 00:47:24;;;;;;;21.67;13.80;;;;;;;18.14;64.12;101627.34;4914809;29;20106;-90
2022/06/16 00:49:51;;;;;;;22.80;13.50;;;;;;;18.02;64.23;101614.13;4914723;29;20032;-90
2022/06/16 00:52:19;;;;;;;21.60;13.77;;;;;;;18.15;64.14;101644.75;4898985;29;20047;-92
2022/06/16 00:55:03;;;;;;;22.73;14.20;;;;;;;18.00;64.51;101621.25;4914480;29;20032;-89
2022/06/16 00:57:36;;;;;;;21.42;13.77;;;;;;;18.08;64.32;101643.44;4914653;29;20092;-90
2022/06/16 01:00:06;;;;;;;23.05;13.75;;;;;;;18.05;64.42;101637.47;4914234;29;20111;-89
2022/06/16 01:02:32;;;;;;;21.08;14.02;;;;;;;18.02;64.31;101650.78;4898611;29;20035;-90
2022/06/16 01:04:57;;;;;;;25.25;13.82;;;;;;;17.85;64.43;101616.13;4914494;29;20107;-91
2022/06/16 01:07:32;;;;;;;22.98;13.80;;;;;;;17.94;64.09;101621.63;4914186;29;20052;-91
2022/06/16 01:09:57;;;;;;;24.35;13.50;;;;;;;17.98;64.29;101645.81;4914284;29;20063;-91
2022/06/16 01:16:05;;;;;;;21.52;13.13;;;;;;;17.84;64.79;101651.09;4907228;29;20166;-89
2022/06/16 01:18:42;;;;;;;22.70;13.90;;;;;;;17.74;64.53;101635.13;4929905;29;20030;-89
2022/06/16 01:21:18;;;;;;;24.77;13.57;;;;;;;17.82;64.46;101635.50;4915337;29;20032;-90
2022/06/16 01:24:18;;;;;;;21.60;12.98;;;;;;;17.84;64.78;101643.25;4898416;29;20498;-90
2022/06/16 01:26:53;;;;;;;22.17;12.95;;;;;;;17.76;64.69;101644.56;4928457;29;20074;-90
2022/06/16 01:29:37;;;;;;;21.95;13.18;;;;;;;17.80;64.67;101647.84;4929344;29;20119;-90
2022/06/16 01:32:06;;;;;;;18.23;12.93;;;;;;;17.86;64.61;101639.59;4915196;29;20052;-89
2022/06/16 01:34:46;;;;;;;22.00;13.77;;;;;;;17.68;65.04;101635.47;4915223;29;20067;-89
2022/06/16 01:37:29;;;;;;;23.65;13.40;;;;;;;17.52;65.74;101634.78;4930035;29;20075;-88
2022/06/16 01:40:16;;;;;;;21.70;13.77;;;;;;;17.62;65.41;101635.88;4914040;29;20418;-90
2022/06/16 01:43:03;;;;;;;21.70;13.10;;;;;;;17.70;65.36;101633.66;4914862;29;20024;-89
2022/06/16 01:45:32;;;;;;;19.88;13.27;;;;;;;17.63;65.38;101638.38;4914176;29;20036;-89
2022/06/16 01:47:58;;;;;;;22.10;13.45;;;;;;;17.58;65.71;101624.75;4914001;29;20043;-92
2022/06/16 01:50:32;;;;;;;20.27;13.57;;;;;;;17.67;65.36;101623.34;4914219;29;20032;-89
2022/06/16 01:53:02;;;;;;;23.33;13.32;;;;;;;17.57;64.80;101611.75;4913978;29;20048;-90
2022/06/16 01:55:30;;;;;;;20.60;14.10;;;;;;;17.52;64.63;101619.06;4898602;29;20032;-90
2022/06/16 01:58:21;;;;;;;22.42;13.98;;;;;;;17.41;64.83;101615.34;4913953;29;20039;-89
2022/06/16 02:00:47;;;;;;;24.33;13.35;;;;;;;17.45;64.89;101618.59;4914016;29;20063;-90
2022/06/16 02:03:19;;;;;;;21.77;13.70;;;;;;;17.35;65.33;101622.72;4898270;29;20119;-91
2022/06/16 02:05:47;;;;;;;19.05;13.73;;;;;;;17.29;65.42;101620.47;4914058;29;20032;-89
2022/06/16 02:08:19;;;;;;;23.30;13.88;;;;;;;17.30;65.06;101633.44;4913867;29;20032;-91
2022/06/16 02:10:50;;;;;;;23.02;12.88;;;;;;;17.04;64.66;101598.44;4914110;29;20498;-89
2022/06/16 02:13:18;;;;;;;24.95;13.30;;;;;;;17.03;64.72;101622.91;4913389;29;20043;-89
2022/06/16 02:16:04;;;;;;;22.70;13.32;;;;;;;16.99;65.17;101637.06;4900258;29;20034;-89
2022/06/16 02:18:31;;;;;;;19.73;13.27;;;;;;;16.99;65.03;101631.84;4918289;29;20039;-90
2022/06/16 02:21:05;;;;;;;24.80;13.75;;;;;;;16.97;65.46;101622.44;4917421;29;20036;-89
2022/06/16 02:23:30;;;;;;;18.10;12.85;;;;;;;17.03;65.30;101628.13;4932782;29;20039;-89
2022/06/16 02:25:57;;;;;;;26.65;13.43;;;;;;;17.06;65.27;101632.34;4917082;29;20024;-90
2022/06/16 02:28:22;;;;;;;21.48;13.20;;;;;;;16.99;65.18;101617.94;4917063;29;20172;-89
2022/06/16 02:31:24;;;;;;;23.83;13.85;;;;;;;17.07;65.25;101639.25;4932970;29;20028;-91
2022/06/16 02:34:08;;;;;;;21.05;13.38;;;;;;;17.00;65.56;101640.53;4906598;29;20044;-90
2022/06/16 02:36:45;;;;;;;23.60;14.13;;;;;;;16.81;65.84;101612.91;4917111;29;20083;-89
2022/06/16 02:39:32;;;;;;;24.05;13.48;;;;;;;16.91;65.80;101634.06;4932609;29;20032;-91
2022/06/16 02:42:16;;;;;;;22.55;14.20;;;;;;;16.98;65.57;101645.84;4916548;29;20036;-91
2022/06/16 02:45:03;;;;;;;25.92;13.85;;;;;;;16.86;65.63;101638.75;4916615;29;20028;-89
2022/06/16 02:47:58;;;;;;;22.55;13.60;;;;;;;16.80;65.84;101639.94;4916690;29;20051;-90
2022/06/16 02:50:53;;;;;;;22.42;13.27;;;;;;;16.82;66.36;101645.09;4918161;29;20514;-89
2022/06/16 02:56:28;;;;;;;24.98;12.90;;;;;;;17.06;66.65;101648.03;4899055;29;20036;-86
2022/06/16 02:58:54;;;;;;;25.38;13.02;;;;;;;16.94;66.05;101625.22;4916992;29;20035;-85
2022/06/16 03:01:20;;;;;;;22.27;13.32;;;;;;;17.22;64.62;101635.72;4899974;29;20034;-85
2022/06/16 03:04:08;;;;;;;21.77;13.40;;;;;;;17.23;65.29;101634.78;4915633;29;20123;-84
2022/06/16 03:06:33;;;;;;;21.85;12.93;;;;;;;17.28;64.87;101643.16;4931127;29;20047;-85
2022/06/16 03:08:59;;;;;;;26.42;13.95;;;;;;;17.27;64.23;101651.94;4899909;29;20391;-85
2022/06/16 03:11:24;;;;;;;20.75;13.50;;;;;;;17.33;64.43;101650.75;4914972;29;20058;-86
2022/06/16 03:13:50;;;;;;;23.15;14.15;;;;;;;17.18;64.75;101621.97;4899785;29;20410;-85
2022/06/16 03:16:15;;;;;;;197.40;21.10;;;;;;;17.24;65.41;101646.91;4915438;29;20532;-86
2022/06/16 03:18:41;;;;;;;78.90;15.80;;;;;;;17.32;64.78;101636.84;4915576;29;20032;-86
2022/06/16 03:21:06;;;;;;;27.02;14.30;;;;;;;17.38;64.00;101648.69;4915715;29;20028;-85
2022/06/16 03:23:32;;;;;;;23.00;14.27;;;;;;;17.42;64.14;101645.78;4899554;29;20446;-85
2022/06/16 03:25:58;;;;;;;24.05;13.38;;;;;;;17.28;64.65;101614.41;4930734;29;20398;-85
2022/06/16 03:28:25;;;;;;;30.13;13.13;;;;;;;17.70;63.71;101628.44;4915030;29;20030;-85
2022/06/16 03:30:51;;;;;;;23.13;13.15;;;;;;;18.51;61.27;101642.34;4915027;29;20035;-85
2022/06/16 03:33:16;;;;;;;23.67;13.75;;;;;;;18.53;60.70;101648.31;4899209;29;20043;-85
2022/06/16 03:35:42;;;;;;;21.17;12.98;;;;;;;18.78;60.22;101634.47;4915321;29;20028;-86
2022/06/16 03:38:25;;;;;;;18.63;12.93;;;;;;;18.79;60.14;101641.38;4915192;29;20481;-85
2022/06/16 03:40:50;;;;;;;24.27;14.30;;;;;;;18.86;60.11;101641.78;4915385;29;20024;-85
2022/06/16 03:43:16;;;;;;;23.85;13.18;;;;;;;19.35;58.57;101641.88;4914941;29;20092;-84
2022/06/16 03:45:41;;;;;;;23.38;12.95;;;;;;;19.40;58.03;101637.16;4899273;29;20087;-85
2022/06/16 03:48:07;;;;;;;19.92;14.10;;;;;;;19.29;58.15;101638.88;4914659;29;20028;-85
2022/06/16 03:50:33;;;;;;;23.52;15.27;;;;;;;19.12;58.72;101651.34;4899090;29;20024;-85
2022/06/16 03:52:58;;;;;;;25.02;15.18;;;;;;;19.10;58.22;101653.25;4914225;29;20409;-85
2022/06/16 03:55:24;;;;;;;23.45;15.05;;;;;;;18.77;59.05;101638.00;4897962;29;20107;-88
2022/06/16 03:57:50;;;;;;;26.65;16.45;;;;;;;18.70;59.79;101652.47;4894643;29;20033;-85
2022/06/16 04:00:16;;;;;;;25.63;15.52;;;;;;;18.76;59.97;101651.22;4911674;29;20043;-85
2022/06/16 04:02:42;;;;;;;25.40;15.40;;;;;;;18.67;59.81;101633.47;4895839;29;20025;-86
2022/06/16 04:05:08;;;;;;;33.72;16.75;;;;;;;18.89;59.51;101659.97;4895551;29;20059;-85
2022/06/16 04:07:36;;;;;;;29.25;16.27;;;;;;;18.87;59.06;101643.47;4910871;29;20410;-85
2022/06/16 04:10:06;;;;;;;30.88;16.33;;;;;;;18.80;59.91;101664.03;4895510;29;20068;-86
2022/06/16 04:12:32;;;;;;;28.58;16.05;;;;;;;18.99;58.93;101647.91;4910872;29;20044;-83
2022/06/16 04:14:57;;;;;;;20.38;14.75;;;;;;;19.55;57.21;101650.97;4911186;29;20075;-84
2022/06/16 04:17:23;;;;;;;54.03;17.02;;;;;;;19.80;56.44;101639.63;4904417;29;20493;-82
2022/06/16 04:22:32;;;;;;;33.78;16.63;;;;;;;19.68;57.41;101667.59;4965123;23;20044;-88
2022/06/16 04:24:59;;;;;;;28.63;16.33;;;;;;;19.89;56.75;101664.38;4951772;29;20081;-86
2022/06/16 04:27:25;;;;;;;27.08;16.38;;;;;;;20.17;55.97;101669.34;4970866;28;20062;-94
2022/06/16 04:29:51;;;;;;;27.65;16.25;;;;;;;20.05;55.78;101668.41;4941757;29;20039;-91
2022/06/16 04:32:17;;;;;;;25.40;16.45;;;;;;;19.85;56.39;101665.53;4948866;29;20035;-91
2022/06/16 04:34:43;;;;;;;27.92;17.10;;;;;;;19.66;57.05;101666.84;4937116;29;20547;-90
2022/06/16 04:37:10;;;;;;;26.58;17.52;;;;;;;19.44;57.41;101664.84;4957576;28;20090;-93
2022/06/16 04:39:35;;;;;;;27.35;17.75;;;;;;;19.59;56.85;101663.00;4951669;29;20034;-87
2022/06/16 04:42:01;;;;;;;25.83;16.95;;;;;;;19.64;58.56;101670.53;4959207;29;20035;-90
2022/06/16 04:44:26;;;;;;;28.27;16.95;;;;;;;20.12;57.22;101676.69;4965227;28;20496;-92
2022/06/16 04:46:52;;;;;;;29.17;16.27;;;;;;;20.28;55.63;101677.25;4936258;29;20492;-86
2022/06/16 04:49:18;;;;;;;33.55;19.83;;;;;;;20.15;56.36;101665.94;4951623;29;20027;-90
2022/06/16 04:51:45;;;;;;;30.63;18.27;;;;;;;20.80;55.49;101669.94;4952563;29;20034;-93
2022/06/16 04:54:11;;;;;;;28.98;17.88;;;;;;;21.30;54.07;101674.00;4920625;29;20062;-93
2022/06/16 04:56:36;;;;;;;31.38;17.83;;;;;;;21.72;52.45;101671.59;4948978;29;20039;-83
2022/06/16 04:59:05;;;;;;;27.80;16.85;;;;;;;21.53;51.92;101672.19;4948198;29;20039;-89
2022/06/16 05:01:31;;;;;;;26.75;17.25;;;;;;;21.19;53.73;101673.97;4924628;29;20039;-86
2022/06/16 05:03:56;;;;;;;26.40;16.33;;;;;;;22.04;52.58;101671.66;4948141;29;20082;-87
2022/06/16 05:06:22;;;;;;;29.58;16.83;;;;;;;22.67;50.29;101670.00;4950135;29;20098;-91
2022/06/16 05:08:48;;;;;;;26.95;16.23;;;;;;;22.80;49.50;101651.31;4935981;29;20023;-89
2022/06/16 05:11:14;;;;;;;28.40;17.38;;;;;;;23.08;49.25;101669.16;4923442;29;20413;-85
2022/06/16 05:13:40;;;;;;;30.27;19.10;;;;;;;22.89;49.55;101648.78;4946966;29;20027;-85
2022/06/16 05:16:05;;;;;;;30.17;17.67;;;;;;;22.94;49.65;101672.16;4950190;28;20505;-90
2022/06/16 05:18:31;;;;;;;28.75;18.75;;;;;;;22.90;49.63;101665.44;4930451;29;20030;-88
2022/06/16 05:21:11;;;;;;;32.55;18.63;;;;;;;22.74;50.78;101672.97;4935907;29;20047;-87
2022/06/16 05:23:36;;;;;;;44.80;26.23;;;;;;;22.65;50.54;101665.81;4965355;28;20083;-89
2022/06/16 05:26:02;;;;;;;35.08;22.40;;;;;;;23.06;49.87;101665.81;4938148;29;20083;-87
2022/06/16 05:28:29;;;;;;;35.50;22.95;;;;;;;22.87;50.16;101674.47;4946136;28;20118;-91
2022/06/16 05:30:54;;;;;;;35.80;21.55;;;;;;;22.88;50.16;101662.94;4928705;29;20532;-86
2022/06/16 05:33:20;;;;;;;42.58;22.88;;;;;;;;;;4928470;29;20035;-92
2022/06/16 05:35:58;;;;;;;38.00;24.45;;;;;;;22.55;50.97;101674.50;4949075;29;20066;-89
2022/06/16 05:38:24;;;;;;;35.22;22.50;;;;;;;22.42;51.44;101659.78;4938369;29;20043;-94
2022/06/16 05:40:57;;;;;;;36.67;23.70;;;;;;;22.75;51.23;101682.56;4936272;29;20443;-93
2022/06/16 05:43:23;;;;;;;34.15;21.85;;;;;;;22.41;50.69;101687.97;4940814;29;20035;-92
2022/06/16 05:45:48;;;;;;;33.03;21.95;;;;;;;22.51;51.53;101680.13;4971043;28;20020;-93
2022/06/16 05:48:14;;;;;;;33.88;19.88;;;;;;;23.01;49.67;101678.59;4947301;28;20031;-91
2022/06/16 05:50:39;;;;;;;30.92;18.85;;;;;;;23.13;49.24;101684.63;4948251;29;20122;-87
2022/06/16 05:53:05;;;;;;;39.03;19.95;;;;;;;23.35;49.11;101673.06;4958646;28;20035;-89
2022/06/16 05:55:30;;;;;;;32.33;18.73;;;;;;;23.58;47.59;101677.16;4944675;28;20130;-88
2022/06/16 05:57:56;;;;;;;31.35;18.35;;;;;;;23.28;48.59;101661.34;4934171;29;20079;-87
2022/06/16 06:00:21;;;;;;;28.10;17.95;;;;;;;23.38;48.67;101654.28;4935783;29;20485;-90
2022/06/16 06:02:49;;;;;;;32.53;18.08;;;;;;;23.15;48.74;101669.50;4953110;28;20091;-84
2022/06/16 06:05:15;;;;;;;29.73;18.83;;;;;;;23.39;48.79;101687.66;4956439;28;20130;-91
2022/06/16 06:18:37;;;;;;;25.73;17.75;;;;;;;23.54;49.09;101680.22;4953772;28;20082;-92
2022/06/16 06:21:03;;;;;;;27.33;17.27;;;;;;;23.45;49.28;101687.13;4969045;28;20143;-89
2022/06/16 06:23:28;;;;;;;23.13;17.13;;;;;;;23.19;48.62;101677.00;4951268;29;20056;-92
2022/06/16 06:25:54;;;;;;;28.58;17.80;;;;;;;23.39;50.61;101692.94;4941011;29;20031;-86
2022/06/16 06:28:20;;;;;;;28.20;17.98;;;;;;;23.37;48.37;101660.56;4946540;29;20036;-90
2022/06/16 06:30:46;;;;;;;30.42;16.73;;;;;;;23.43;48.74;101689.06;4921016;29;20039;-84
2022/06/16 06:33:11;;;;;;;28.23;16.67;;;;;;;23.68;49.46;101698.34;4953487;28;20041;-91
2022/06/16 06:35:37;;;;;;;30.08;16.80;;;;;;;23.73;48.58;101691.72;4930722;29;20050;-86
2022/06/16 06:38:03;;;;;;;33.60;19.17;;;;;;;23.82;48.59;101691.88;4925578;29;20039;-89
2022/06/16 06:40:34;;;;;;;32.60;16.92;;;;;;;24.07;47.93;101694.00;4953344;29;20086;-86
2022/06/16 06:42:59;;;;;;;28.38;16.80;;;;;;;23.88;47.25;101700.09;4950897;29;20031;-84
2022/06/16 06:45:25;;;;;;;27.60;16.67;;;;;;;23.87;47.91;101700.22;4948930;29;20149;-87
2022/06/16 06:47:50;;;;;;;34.08;17.45;;;;;;;23.98;48.42;101710.69;4949306;29;20103;-89
2022/06/16 06:50:20;;;;;;;29.13;16.55;;;;;;;24.02;46.47;101699.72;4938013;29;20023;-88
2022/06/16 06:52:45;;;;;;;28.30;16.73;;;;;;;23.57;47.00;101687.88;4952950;28;20032;-92
2022/06/16 06:55:11;;;;;;;26.77;16.65;;;;;;;23.55;47.71;101687.16;4927749;28;20072;-93
2022/06/16 06:57:36;;;;;;;23.92;16.13;;;;;;;23.69;47.18;101692.94;4949772;28;20102;-92
2022/06/16 07:00:03;;;;;;;25.13;16.05;;;;;;;23.67;47.83;101683.47;4940033;28;20046;-91
2022/06/16 07:02:28;;;;;;;28.45;17.48;;;;;;;23.62;49.99;101681.25;4948362;29;20118;-89
2022/06/16 07:04:54;;;;;;;26.63;17.67;;;;;;;23.73;49.16;101691.72;4965704;28;20513;-88
2022/06/16 07:07:21;;;;;;;28.73;17.42;;;;;;;23.95;49.44;101692.47;4942404;28;20457;-92
2022/06/16 07:09:47;;;;;;;28.88;16.73;;;;;;;24.09;47.67;101689.44;4926711;29;20030;-91
2022/06/16 07:12:16;;;;;;;75.10;39.92;;;;;;;24.33;48.50;101693.53;4941661;29;20487;-84
2022/06/16 07:14:45;;;;;;;114.40;62.28;;;;;;;24.49;47.49;101693.81;4937837;29;20055;-85
2022/06/16 07:17:11;;;;;;;28.15;18.23;;;;;;;24.33;47.76;101685.59;4947657;28;20082;-91
2022/06/16 07:19:37;;;;;;;28.60;17.60;;;;;;;24.28;47.76;101692.06;4947502;29;20035;-91
2022/06/16 07:22:04;;;;;;;44.03;27.27;;;;;;;24.40;48.88;101694.66;4935951;29;20138;-86
2022/06/16 07:24:29;;;;;;;25.63;17.88;;;;;;;24.49;48.05;101688.53;4945028;29;20077;-91
2022/06/16 07:26:55;;;;;;;30.50;21.40;;;;;;;24.50;50.25;101695.47;4910820;29;20406;-87
2022/06/16 07:29:20;;;;;;;27.92;18.30;;;;;;;24.52;47.65;101690.88;4946181;29;20468;-86
2022/06/16 07:31:46;;;;;;;29.27;18.05;;;;;;;24.47;48.21;101686.00;4936253;28;20425;-87
2022/06/16 07:34:12;;;;;;;35.10;18.33;;;;;;;24.70;48.04;101689.19;4938406;29;20058;-89
2022/06/16 07:36:37;;;;;;;30.05;19.83;;;;;;;24.84;48.67;101685.25;4950018;29;20030;-87
2022/06/16 07:39:04;;;;;;;30.23;18.48;;;;;;;24.88;46.99;101663.69;4948775;29;20040;-85
2022/06/16 07:41:32;;;;;;;27.50;18.08;;;;;;;25.11;46.69;101681.91;4949430;29;20042;-88
2022/06/16 07:43:58;;;;;;;32.30;18.67;;;;;;;25.04;47.42;101678.13;4950465;28;20114;-87
2022/06/16 07:46:24;;;;;;;33.10;19.45;;;;;;;25.14;46.40;101673.66;4948808;28;20119;-86
2022/06/16 07:48:51;;;;;;;26.05;17.55;;;;;;;25.01;45.96;101673.13;4948635;28;20118;-86
2022/06/16 07:51:17;;;;;;;28.05;17.90;;;;;;;25.23;45.52;101679.91;4934434;29;20030;-88
2022/06/16 07:53:43;;;;;;;31.45;18.65;;;;;;;25.26;45.46;101683.09;4913851;28;20040;-95
2022/06/16 07:56:08;;;;;;;27.50;17.67;;;;;;;25.43;45.48;101679.66;4936290;29;20101;-89
2022/06/16 07:58:34;;;;;;;31.00;18.92;;;;;;;25.44;45.29;101665.44;4948080;29;20122;-89
2022/06/16 08:01:00;;;;;;;29.05;17.15;;;;;;;25.57;44.23;101669.59;4961441;28;20133;-89
2022/06/16 08:03:29;;;;;;;26.17;16.38;;;;;;;25.69;43.81;101665.75;4961523;28;20055;-89
2022/06/16 08:05:55;;;;;;;25.80;17.67;;;;;;;25.93;44.36;101667.84;4950083;29;20031;-90
2022/06/16 08:08:23;;;;;;;30.08;16.80;;;;;;;26.02;44.22;101678.38;4951359;29;20028;-93
2022/06/16 08:10:51;;;;;;;32.70;17.88;;;;;;;26.10;43.42;101669.69;4955953;28;20034;-94
2022/06/16 08:13:17;;;;;;;37.63;17.77;;;;;;;26.17;44.08;101661.97;4950344;28;20027;-91
2022/06/16 08:15:45;;;;;;;27.42;17.42;;;;;;;26.27;43.51;101668.03;4945660;29;20035;-88
2022/06/16 08:18:12;;;;;;;25.25;16.25;;;;;;;26.40;42.16;101673.81;4932117;29;20027;-86
2022/06/16 08:20:38;;;;;;;23.15;15.75;;;;;;;26.41;41.70;101674.66;4933054;29;20067;-91
2022/06/16 08:23:03;;;;;;;20.58;14.75;;;;;;;26.54;40.33;101678.56;4942340;29;20066;-92
2022/06/16 08:25:30;;;;;;;23.83;16.73;;;;;;;26.64;41.18;101685.59;4947332;29;20031;-84
2022/06/16 08:27:55;;;;;;;25.92;16.52;;;;;;;26.67;41.33;101659.59;4928598;29;20028;-83
2022/06/16 08:30:22;;;;;;;26.85;17.13;;;;;;;26.77;41.46;101680.75;4931364;29;20035;-84
2022/06/16 08:32:48;;;;;;;27.77;16.88;;;;;;;26.88;41.82;101672.50;4945797;28;20031;-89
2022/06/16 08:35:13;;;;;;;21.35;15.75;;;;;;;27.00;40.23;101681.03;4948874;28;20028;-88
2022/06/16 08:37:39;;;;;;;24.50;14.50;;;;;;;26.84;39.99;101658.72;4939898;29;20035;-91
2022/06/16 08:40:05;;;;;;;16.63;12.65;;;;;;;26.94;38.69;101665.72;4944388;29;20066;-86
2022/06/16 08:42:50;;;;;;;18.38;13.25;;;;;;;27.16;39.93;101665.25;4936327;29;20039;-86
2022/06/16 08:45:32;;;;;;;22.75;13.77;;;;;;;27.29;39.27;101651.53;4962715;28;20114;-89
2022/06/16 08:48:01;;;;;;;19.23;13.48;;;;;;;27.37;38.67;101668.34;4959947;28;20019;-88
2022/06/16 08:50:41;;;;;;;25.15;14.65;;;;;;;27.57;38.59;101668.91;4943860;29;20031;-85
2022/06/16 08:53:18;;;;;;;28.83;18.70;;;;;;;27.71;38.08;101665.66;4948895;28;20032;-87
2022/06/16 08:56:20;;;;;;;23.42;14.32;;;;;;;27.40;39.12;101659.19;4925168;28;20083;-86
2022/06/16 08:58:58;;;;;;;21.38;14.95;;;;;;;27.45;39.17;101656.91;4953490;28;20071;-84
2022/06/16 09:01:39;;;;;;;23.40;14.40;;;;;;;27.61;38.80;101659.59;4949756;28;20531;-88
2022/06/16 09:04:09;;;;;;;17.87;12.90;;;;;;;27.79;37.86;101656.03;4950080;29;20489;-92
2022/06/16 09:06:57;;;;;;;19.67;14.60;;;;;;;27.83;37.30;101652.06;4945088;28;20054;-88
2022/06/16 09:12:37;;;;;;;22.30;15.10;;;;;;;28.12;37.94;101662.22;4928017;29;20055;-87
2022/06/16 09:15:30;;;;;;;21.63;14.88;;;;;;;28.26;39.88;101659.78;4947437;29;20055;-89
2022/06/16 09:18:23;;;;;;;22.17;15.55;;;;;;;28.28;37.92;101652.47;4927554;29;20043;-88
2022/06/16 09:21:10;;;;;;;25.38;16.20;;;;;;;28.28;36.76;101633.84;4933419;29;20497;-91
2022/06/16 09:24:33;;;;;;;25.98;17.02;;;;;;;28.46;37.08;101643.50;4954912;28;20051;-88
2022/06/16 09:27:25;;;;;;;22.00;15.38;;;;;;;28.51;36.63;101625.19;4911882;29;20155;-84
2022/06/16 09:29:58;;;;;;;22.88;16.70;;;;;;;28.56;37.13;101633.50;4887241;29;20530;-85
2022/06/16 09:32:38;;;;;;;24.55;14.90;;;;;;;28.55;36.86;101603.41;4917086;29;20048;-84
2022/06/16 09:35:07;;;;;;;23.50;15.40;;;;;;;28.88;36.91;101605.16;4952101;28;20139;-87
2022/06/16 09:37:38;;;;;;;20.90;15.25;;;;;;;29.18;34.95;101624.88;4943395;29;20165;-87
2022/06/16 09:40:33;;;;;;;21.02;15.18;;;;;;;29.19;36.11;101605.22;4973128;28;20117;-92
2022/06/16 09:43:03;;;;;;;18.83;14.35;;;;;;;29.22;35.86;101612.91;4955716;28;20531;-88
2022/06/16 09:45:33;;;;;;;19.88;13.98;;;;;;;29.30;35.36;101610.16;4957107;29;20023;-85
2022/06/16 09:48:06;;;;;;;20.73;14.45;;;;;;;29.37;34.85;101609.31;4937224;29;20389;-86
2022/06/16 09:50:49;;;;;;;23.65;15.10;;;;;;;29.38;35.75;101608.28;4949133;28;20023;-88
2022/06/16 09:53:27;;;;;;;23.40;17.08;;;;;;;29.31;35.43;101602.03;4953087;29;20039;-92
2022/06/16 09:56:22;;;;;;;21.23;15.85;;;;;;;29.38;35.29;101602.97;4924074;28;20056;-87
2022/06/16 09:58:54;;;;;;;18.73;14.15;;;;;;;29.24;34.94;101601.06;4937754;29;20024;-90
2022/06/16 10:01:22;;;;;;;20.65;14.13;;;;;;;29.22;35.14;101592.41;4955556;28;20144;-86
2022/06/16 10:03:54;;;;;;;18.92;12.73;;;;;;;29.54;33.09;101601.25;4955944;28;20035;-87
2022/06/16 10:06:28;;;;;;;19.80;14.70;;;;;;;29.78;32.97;101598.41;4955997;28;20106;-91
2022/06/16 10:09:12;;;;;;;18.45;13.40;;;;;;;29.77;33.85;101602.09;4955218;28;20527;-90
2022/06/16 10:12:12;;;;;;;17.13;12.55;;;;;;;29.50;32.35;101599.94;4940942;28;20030;-85
2022/06/16 10:14:40;;;;;;;19.13;12.45;;;;;;;29.46;32.74;101593.28;4937932;29;20110;-85
2022/06/16 10:17:07;;;;;;;17.45;12.55;;;;;;;29.70;33.28;101595.84;4939696;29;20043;-89
2022/06/16 10:19:40;;;;;;;16.20;13.20;;;;;;;29.96;31.93;101585.63;4951876;29;20159;-89
2022/06/16 10:22:06;;;;;;;18.90;12.43;;;;;;;30.14;32.36;101565.84;4925378;29;20070;-91
2022/06/16 10:24:40;;;;;;;16.23;12.85;;;;;;;30.11;31.93;101577.72;4927415;29;20051;-88
2022/06/16 10:27:06;;;;;;;30.23;18.50;;;;;;;30.33;31.76;101585.84;4936744;29;20511;-87
2022/06/16 10:29:32;;;;;;;17.88;14.10;;;;;;;30.43;30.99;101573.06;4958063;28;20038;-86
2022/06/16 10:31:59;;;;;;;18.38;11.75;;;;;;;30.38;30.00;101578.94;4940215;29;20050;-89
2022/06/16 10:34:35;;;;;;;20.27;11.82;;;;;;;30.55;29.69;101582.28;4953081;28;20481;-87
2022/06/16 10:37:18;;;;;;;12.52;10.52;;;;;;;30.85;30.91;101583.16;4940536;29;20027;-85
2022/06/16 10:39:54;;;;;;;13.43;11.10;;;;;;;30.93;29.20;101583.06;4952445;29;20043;-86
2022/06/16 10:42:23;;;;;;;16.95;11.38;;;;;;;31.04;29.69;101579.91;4951844;29;20042;-87
2022/06/16 10:45:01;;;;;;;18.48;12.52;;;;;;;31.10;29.65;101564.97;4953725;29;20031;-88
2022/06/16 10:47:32;;;;;;;19.98;12.98;;;;;;;31.11;29.68;101554.09;4947823;29;20036;-86
2022/06/16 10:49:58;;;;;;;18.23;12.57;;;;;;;31.00;29.32;101551.91;4933596;29;20103;-85
2022/06/16 10:52:31;;;;;;;13.73;11.50;;;;;;;31.15;28.88;101569.75;4949012;28;20552;-85
2022/06/16 10:55:03;;;;;;;19.58;11.80;;;;;;;30.89;29.83;101560.41;4916526;28;20534;-86
2022/06/16 10:57:32;;;;;;;23.83;12.93;;;;;;;31.27;30.87;101568.31;4958298;28;20515;-83
2022/06/16 11:00:12;;;;;;;18.65;11.77;;;;;;;31.65;29.99;101567.03;4966344;28;20416;-85
2022/06/16 11:02:37;;;;;;;16.60;11.38;;;;;;;31.80;28.88;101569.69;4967918;28;20024;-84
2022/06/16 11:05:11;;;;;;;30.67;21.38;;;;;;;31.80;30.53;101575.06;4953543;28;20480;-93
2022/06/16 11:07:39;;;;;;;29.45;23.02;;;;;;;31.94;28.22;101573.31;4950566;29;20038;-93
2022/06/16 11:10:12;;;;;;;22.63;14.25;;;;;;;32.05;27.78;101561.25;4928034;29;20035;-92
2022/06/16 11:12:39;;;;;;;15.02;10.75;;;;;;;31.94;26.50;101571.47;4936915;29;20050;-92
2022/06/16 11:15:17;;;;;;;13.32;10.25;;;;;;;31.65;27.50;101548.31;4952347;29;20087;-92
2022/06/16 11:17:42;;;;;;;16.63;12.15;;;;;;;31.76;27.45;101554.22;4951458;29;20031;-90
2022/06/16 11:20:36;;;;;;;20.73;11.30;;;;;;;31.91;27.20;101549.63;4936116;29;20046;-86
2022/06/16 11:23:27;;;;;;;14.55;10.98;;;;;;;32.02;26.95;101562.47;4967734;28;20539;-85
2022/06/16 11:26:01;;;;;;;15.82;10.13;;;;;;;31.98;27.03;101555.88;4951558;29;20047;-89
2022/06/16 11:28:27;;;;;;;13.32;10.25;;;;;;;31.84;26.19;101549.56;4951836;29;20553;-84
2022/06/16 11:30:55;;;;;;;12.55;10.40;;;;;;;31.72;26.38;101544.88;4949268;29;20046;-86
2022/06/16 11:36:16;;;;;;;13.98;10.27;;;;;;;31.95;26.66;101548.19;4934258;29;20047;-86
2022/06/16 11:39:06;;;;;;;14.82;10.52;;;;;;;31.91;26.72;101549.63;4950738;28;20115;-84
2022/06/16 11:41:32;;;;;;;14.25;10.07;;;;;;;31.81;27.62;101549.13;4950558;29;20102;-86
2022/06/16 11:44:10;;;;;;;14.60;10.02;;;;;;;31.74;26.92;101549.00;4947009;28;20123;-88
2022/06/16 11:47:03;;;;;;;14.55;10.13;;;;;;;31.80;25.88;101505.50;4944739;28;20068;-91
2022/06/16 11:49:37;;;;;;;13.10;10.43;;;;;;;32.08;26.13;101545.66;4934739;29;20056;-89
2022/06/16 11:52:26;;;;;;;15.90;10.68;;;;;;;32.23;26.14;101538.31;4958581;28;20038;-90